Time;durP1;ratioP1;P1;durP2;ratioP2;P2;SDS_P1;SDS_P2;PMS_P1;PMS_P2;Temp;Humidity;BMP_temperature;BMP_pressure;BME280_temperature;BME280_humidity;BME280_pressure;Samples;Min_cycle;Max_cycle;Signal;HPM_P1;HPM_P2
2022/09/14 00:01:42;;;;;;;1.92;0.57;;;25.00;46.10;;;;;;5040925;28;20041;-57
2022/09/14 00:04:18;;;;;;;1.23;0.50;;;25.00;46.10;;;;;;5035914;28;20349;-56
2022/09/14 00:06:46;;;;;;;2.45;0.70;;;25.00;46.10;;;;;;5050015;28;20053;-54
2022/09/14 00:09:21;;;;;;;1.95;0.50;;;25.00;46.10;;;;;;5054759;28;20037;-53
2022/09/14 00:11:47;;;;;;;2.47;0.88;;;25.00;46.70;;;;;;5054166;28;20067;-56
2022/09/14 00:14:14;;;;;;;1.45;0.60;;;25.00;46.10;;;;;;5051091;28;20044;-55
2022/09/14 00:16:41;;;;;;;1.90;0.70;;;25.00;46.10;;;;;;5034201;28;20052;-52
2022/09/14 00:19:21;;;;;;;1.73;0.70;;;25.00;46.10;;;;;;5054789;28;20064;-56
2022/09/14 00:21:53;;;;;;;2.25;0.80;;;25.00;46.00;;;;;;5054787;28;20060;-54
2022/09/14 00:24:19;;;;;;;1.98;0.60;;;25.00;46.00;;;;;;5049932;28;20112;-57
2022/09/14 00:26:45;;;;;;;2.17;0.60;;;25.00;46.00;;;;;;5057192;28;20036;-53
2022/09/14 00:29:11;;;;;;;1.98;0.63;;;24.90;46.00;;;;;;5057374;28;20118;-54
2022/09/14 00:31:38;;;;;;;2.50;0.80;;;25.00;46.00;;;;;;5058753;28;20094;-55
2022/09/14 00:34:06;;;;;;;1.40;0.70;;;24.90;46.00;;;;;;5057664;28;20047;-54
2022/09/14 00:36:37;;;;;;;2.40;0.68;;;24.90;46.00;;;;;;5055342;28;20066;-54
2022/09/14 00:39:03;;;;;;;1.23;0.55;;;24.90;46.00;;;;;;5056751;28;20045;-56
2022/09/14 00:41:32;;;;;;;1.70;0.65;;;24.90;46.00;;;;;;5054237;28;20028;-55
2022/09/14 00:44:25;;;;;;;2.17;0.77;;;24.90;46.00;;;;;;5057917;28;20037;-55
2022/09/14 00:46:54;;;;;;;2.28;0.50;;;24.90;46.00;;;;;;5057966;28;20033;-55
2022/09/14 00:49:24;;;;;;;0.98;0.52;;;24.90;46.00;;;;;;5050697;28;20136;-57
2022/09/14 00:52:11;;;;;;;3.05;0.85;;;24.90;46.00;;;;;;5057982;28;20389;-54
2022/09/14 00:54:45;;;;;;;1.15;0.60;;;24.80;45.90;;;;;;5058653;28;20037;-51
2022/09/14 00:57:11;;;;;;;1.75;0.60;;;24.90;46.00;;;;;;5054277;28;20063;-56
2022/09/14 00:59:39;;;;;;;2.15;0.65;;;24.80;45.90;;;;;;5035424;28;20377;-53
2022/09/14 01:02:08;;;;;;;1.40;0.50;;;24.80;45.90;;;;;;5049934;28;20025;-55
2022/09/14 01:04:35;;;;;;;1.92;0.50;;;24.80;45.90;;;;;;5054946;28;20033;-54
2022/09/14 01:07:19;;;;;;;1.77;0.68;;;24.80;45.90;;;;;;5048137;28;20049;-54
2022/09/14 01:10:11;;;;;;;1.70;0.70;;;24.80;45.90;;;;;;5058011;28;20344;-54
2022/09/14 01:13:04;;;;;;;2.30;0.70;;;24.80;45.90;;;;;;5055863;28;20047;-54
2022/09/14 01:16:13;;;;;;;1.95;0.70;;;24.80;45.90;;;;;;5058031;28;20432;-53
2022/09/14 01:18:46;;;;;;;1.40;0.50;;;24.80;45.90;;;;;;5025544;28;20038;-54
2022/09/14 01:21:17;;;;;;;2.22;0.88;;;24.80;45.90;;;;;;5021998;28;20044;-56
2022/09/14 01:23:46;;;;;;;2.38;0.70;;;24.80;45.90;;;;;;5041725;28;20036;-53
2022/09/14 01:26:42;;;;;;;0.98;0.50;;;24.80;45.90;;;;;;5047348;28;20033;-55
2022/09/14 01:29:19;;;;;;;1.85;0.80;;;24.80;45.90;;;;;;5045043;28;20051;-52
2022/09/14 01:32:01;;;;;;;2.47;0.68;;;24.70;45.90;;;;;;5042689;28;20040;-56
2022/09/14 01:34:40;;;;;;;1.48;0.60;;;24.80;45.90;;;;;;5042449;28;20029;-52
2022/09/14 01:37:24;;;;;;;2.38;0.50;;;24.70;45.80;;;;;;5043849;28;20036;-53
2022/09/14 01:40:02;;;;;;;1.08;0.50;;;24.70;45.80;;;;;;5047004;28;20040;-55
2022/09/14 01:42:30;;;;;;;1.02;0.70;;;24.70;45.90;;;;;;5043385;28;20032;-59
2022/09/14 01:45:00;;;;;;;1.60;0.60;;;24.70;45.90;;;;;;5041081;28;20025;-55
2022/09/14 01:47:42;;;;;;;2.30;0.70;;;24.70;45.90;;;;;;5043698;28;20072;-54
2022/09/14 01:50:47;;;;;;;1.52;0.40;;;24.70;45.90;;;;;;5045778;28;20036;-57
2022/09/14 01:53:36;;;;;;;1.67;0.50;;;24.70;45.80;;;;;;5043772;28;20028;-53
2022/09/14 01:56:31;;;;;;;2.00;0.60;;;24.70;45.80;;;;;;5042946;28;20357;-57
2022/09/14 01:59:21;;;;;;;1.23;0.50;;;24.70;45.80;;;;;;5039889;28;20325;-57
2022/09/14 02:02:03;;;;;;;1.73;0.98;;;24.70;45.80;;;;;;5045269;28;20126;-56
2022/09/14 02:05:07;;;;;;;2.67;0.40;;;24.70;45.80;;;;;;5042238;28;20464;-55
2022/09/14 02:07:35;;;;;;;1.02;0.50;;;24.70;45.70;;;;;;5033881;28;20457;-55
2022/09/14 02:10:02;;;;;;;0.98;0.30;;;24.70;45.70;;;;;;5039301;28;20088;-56
2022/09/14 02:12:28;;;;;;;1.92;0.50;;;24.70;45.70;;;;;;5045113;28;20037;-57
2022/09/14 02:14:54;;;;;;;1.50;0.82;;;24.60;45.70;;;;;;5044145;28;20032;-56
2022/09/14 02:17:21;;;;;;;2.88;0.60;;;24.60;45.70;;;;;;5046200;28;20348;-54
2022/09/14 02:19:51;;;;;;;1.33;0.60;;;24.70;45.70;;;;;;5044282;28;20028;-56
2022/09/14 02:22:17;;;;;;;1.75;0.50;;;24.60;45.60;;;;;;5044996;28;20041;-56
2022/09/14 02:24:43;;;;;;;1.50;0.70;;;24.60;45.60;;;;;;5042417;28;20025;-55
2022/09/14 02:27:09;;;;;;;1.05;0.40;;;24.60;45.60;;;;;;5044275;28;20033;-56
2022/09/14 02:29:35;;;;;;;1.40;0.52;;;24.60;45.60;;;;;;5046063;28;20048;-57
2022/09/14 02:32:30;;;;;;;1.83;0.70;;;24.60;45.60;;;;;;5044315;28;20021;-56
2022/09/14 02:35:17;;;;;;;0.93;0.52;;;24.60;45.60;;;;;;5035826;28;20068;-57
2022/09/14 02:37:59;;;;;;;0.98;0.40;;;24.60;45.50;;;;;;5040855;28;20044;-58
2022/09/14 02:40:42;;;;;;;1.80;0.47;;;24.60;45.50;;;;;;5040166;28;20037;-56
2022/09/14 02:43:39;;;;;;;0.95;0.43;;;24.60;45.50;;;;;;5046125;28;20029;-57
2022/09/14 02:46:24;;;;;;;1.20;0.47;;;24.60;45.50;;;;;;5041474;28;20029;-55
2022/09/14 02:48:53;;;;;;;1.58;0.40;;;24.60;45.50;;;;;;5041861;28;20044;-55
2022/09/14 02:51:37;;;;;;;0.82;0.50;;;24.60;45.50;;;;;;5043729;28;20112;-56
2022/09/14 02:54:24;;;;;;;0.82;0.40;;;24.60;45.40;;;;;;5047004;28;20049;-56
2022/09/14 02:56:50;;;;;;;0.98;0.40;;;24.60;45.40;;;;;;5041298;28;20037;-55
2022/09/14 02:59:17;;;;;;;2.22;0.60;;;24.60;45.40;;;;;;5043465;28;20036;-55
2022/09/14 03:01:44;;;;;;;1.75;0.47;;;24.60;45.40;;;;;;5041770;28;20105;-56
2022/09/14 03:04:10;;;;;;;2.53;0.50;;;24.60;45.40;;;;;;5040931;28;20034;-55
2022/09/14 03:06:36;;;;;;;0.90;0.50;;;24.60;45.40;;;;;;5042924;28;20037;-57
2022/09/14 03:09:02;;;;;;;0.57;0.35;;;24.60;45.50;;;;;;5043420;28;20075;-55
2022/09/14 03:11:28;;;;;;;1.30;0.50;;;24.50;45.40;;;;;;5043554;28;20124;-53
2022/09/14 03:13:53;;;;;;;2.00;0.47;;;24.60;45.50;;;;;;5042245;28;20508;-55
2022/09/14 03:16:19;;;;;;;0.80;0.50;;;24.50;45.40;;;;;;5041898;28;20037;-54
2022/09/14 03:18:45;;;;;;;1.58;0.70;;;24.50;45.50;;;;;;5043792;28;20036;-55
2022/09/14 03:21:15;;;;;;;2.08;0.52;;;24.50;45.50;;;;;;5039418;28;20025;-56
2022/09/14 03:23:43;;;;;;;1.88;0.40;;;24.50;45.50;;;;;;5044474;28;20355;-56
2022/09/14 03:26:15;;;;;;;0.68;0.40;;;24.50;45.50;;;;;;5042277;28;20044;-53
2022/09/14 03:28:41;;;;;;;0.95;0.30;;;24.50;45.60;;;;;;5036175;28;20452;-54
2022/09/14 03:31:09;;;;;;;1.58;0.40;;;24.50;45.60;;;;;;5041093;28;20033;-55
2022/09/14 03:33:35;;;;;;;1.20;0.50;;;24.50;45.70;;;;;;5040010;28;20453;-56
2022/09/14 03:36:09;;;;;;;1.50;0.32;;;24.50;45.70;;;;;;5044666;28;20029;-54
2022/09/14 03:38:35;;;;;;;2.15;0.45;;;24.50;45.70;;;;;;5042056;28;20051;-56
2022/09/14 03:41:06;;;;;;;0.73;0.30;;;24.50;45.70;;;;;;5043124;28;20025;-54
2022/09/14 03:43:32;;;;;;;2.53;0.55;;;24.50;45.80;;;;;;5044171;28;20353;-56
2022/09/14 03:46:11;;;;;;;1.23;0.52;;;24.40;45.70;;;;;;5041361;28;20035;-55
2022/09/14 03:48:37;;;;;;;1.70;0.60;;;24.50;45.80;;;;;;5044044;28;20029;-57
2022/09/14 03:51:06;;;;;;;1.92;0.52;;;24.40;45.80;;;;;;5042215;28;20033;-56
2022/09/14 03:53:32;;;;;;;1.67;0.30;;;24.40;45.80;;;;;;5041858;28;20029;-54
2022/09/14 03:55:58;;;;;;;1.42;0.60;;;24.40;45.80;;;;;;5038988;28;20021;-54
2022/09/14 03:58:24;;;;;;;2.15;0.52;;;24.40;45.90;;;;;;5042251;28;20063;-55
2022/09/14 04:00:50;;;;;;;1.83;0.50;;;24.40;45.90;;;;;;5041525;28;20040;-56
2022/09/14 04:03:16;;;;;;;1.80;0.45;;;24.40;45.90;;;;;;5046350;28;20047;-55
2022/09/14 04:05:44;;;;;;;0.75;0.35;;;24.40;45.90;;;;;;5048384;28;20095;-56
2022/09/14 04:08:10;;;;;;;1.10;0.40;;;24.40;45.90;;;;;;5043919;28;20453;-57
2022/09/14 04:10:39;;;;;;;1.60;0.65;;;24.40;45.90;;;;;;5046309;28;20029;-55
2022/09/14 04:13:05;;;;;;;2.97;0.95;;;24.40;45.90;;;;;;5046298;28;20037;-56
2022/09/14 04:15:31;;;;;;;1.33;0.50;;;24.40;46.00;;;;;;5046896;28;20111;-57
2022/09/14 04:17:56;;;;;;;1.20;0.40;;;24.40;46.00;;;;;;5047056;28;20048;-57
2022/09/14 04:20:22;;;;;;;2.03;0.68;;;24.40;46.00;;;;;;5045459;28;20049;-54
2022/09/14 04:22:48;;;;;;;1.20;0.30;;;24.40;46.00;;;;;;5047369;28;20025;-54
2022/09/14 04:25:14;;;;;;;1.10;0.47;;;24.40;46.00;;;;;;5030828;28;20037;-55
2022/09/14 04:27:39;;;;;;;1.67;0.40;;;24.40;46.00;;;;;;5026988;28;20032;-58
2022/09/14 04:30:06;;;;;;;1.20;0.50;;;24.40;46.10;;;;;;5036223;28;20041;-55
2022/09/14 04:32:31;;;;;;;1.63;0.40;;;24.40;46.10;;;;;;5047659;28;20361;-56
2022/09/14 04:34:57;;;;;;;1.15;0.30;;;24.30;46.00;;;;;;5045609;28;20025;-54
2022/09/14 04:37:23;;;;;;;1.70;0.50;;;24.30;46.10;;;;;;5045947;28;20060;-57
2022/09/14 04:39:49;;;;;;;2.72;0.43;;;24.40;46.10;;;;;;5045239;28;20329;-57
2022/09/14 04:42:15;;;;;;;0.82;0.20;;;24.30;46.10;;;;;;5044923;28;20356;-58
2022/09/14 04:44:40;;;;;;;1.13;0.40;;;24.30;46.10;;;;;;5044560;28;20030;-57
2022/09/14 04:47:06;;;;;;;1.27;0.45;;;24.30;46.20;;;;;;5047917;28;20025;-55
2022/09/14 04:49:32;;;;;;;1.13;0.45;;;24.30;46.20;;;;;;5045026;28;20053;-55
2022/09/14 04:51:58;;;;;;;1.73;0.40;;;24.30;46.30;;;;;;5045825;28;20033;-56
2022/09/14 04:54:23;;;;;;;0.60;0.30;;;24.30;46.30;;;;;;5046074;28;20021;-56
2022/09/14 04:56:49;;;;;;;1.08;0.40;;;24.30;46.30;;;;;;5046030;28;20024;-54
2022/09/14 04:59:15;;;;;;;1.95;0.73;;;24.30;46.30;;;;;;5043856;28;20051;-55
2022/09/14 05:01:46;;;;;;;0.77;0.40;;;24.30;46.40;;;;;;5063167;28;20039;-57
2022/09/14 05:04:12;;;;;;;1.92;0.28;;;24.30;46.40;;;;;;5047770;28;20353;-57
2022/09/14 05:06:40;;;;;;;1.75;0.40;;;24.30;46.40;;;;;;5047576;28;20056;-56
2022/09/14 05:09:14;;;;;;;2.75;0.60;;;24.30;46.40;;;;;;5077525;28;20029;-55
2022/09/14 05:11:40;;;;;;;1.23;0.40;;;24.30;46.50;;;;;;5045999;28;20102;-57
2022/09/14 05:14:08;;;;;;;1.17;0.50;;;24.30;46.50;;;;;;5042708;28;20037;-56
2022/09/14 05:16:36;;;;;;;1.65;0.50;;;24.30;46.50;;;;;;5044624;28;20437;-57
2022/09/14 05:19:05;;;;;;;1.75;0.43;;;24.30;46.50;;;;;;5047911;28;20057;-57
2022/09/14 05:21:33;;;;;;;2.30;0.70;;;24.30;46.60;;;;;;5044741;28;20035;-56
2022/09/14 05:24:01;;;;;;;1.13;0.30;;;24.30;46.60;;;;;;5045403;28;20061;-55
2022/09/14 05:26:29;;;;;;;1.45;0.60;;;24.30;46.70;;;;;;5042697;28;20361;-56
2022/09/14 05:28:57;;;;;;;1.55;0.63;;;24.20;46.70;;;;;;5042295;28;20034;-54
2022/09/14 05:31:25;;;;;;;1.45;0.55;;;24.30;46.80;;;;;;5046722;28;20056;-55
2022/09/14 05:33:51;;;;;;;1.42;0.50;;;24.30;46.80;;;;;;5045754;28;20017;-55
2022/09/14 05:36:17;;;;;;;1.45;0.45;;;24.30;46.80;;;;;;5046065;28;20033;-57
2022/09/14 05:38:43;;;;;;;4.50;0.52;;;24.30;46.80;;;;;;5045388;28;20032;-57
2022/09/14 05:41:12;;;;;;;1.23;0.40;;;24.30;46.80;;;;;;5044229;28;20021;-54
2022/09/14 05:43:38;;;;;;;0.77;0.30;;;24.20;46.80;;;;;;5044282;28;20112;-55
2022/09/14 05:46:25;;;;;;;1.60;0.50;;;24.20;46.80;;;;;;5043963;28;20108;-57
2022/09/14 05:48:51;;;;;;;1.52;0.40;;;24.20;46.80;;;;;;5044499;28;20033;-55
2022/09/14 05:51:24;;;;;;;1.02;0.22;;;24.20;46.80;;;;;;5042222;28;20040;-58
2022/09/14 05:53:55;;;;;;;1.45;0.50;;;24.20;46.80;;;;;;5046086;28;20108;-56
2022/09/14 05:56:23;;;;;;;1.98;0.50;;;24.20;46.80;;;;;;5041957;28;20038;-56
2022/09/14 05:58:49;;;;;;;1.20;0.47;;;24.20;46.90;;;;;;5044103;28;20457;-57
2022/09/14 06:01:18;;;;;;;1.95;0.40;;;24.20;46.90;;;;;;5045194;28;20068;-55
2022/09/14 06:03:45;;;;;;;1.08;0.40;;;24.20;47.00;;;;;;5044856;28;20047;-55
2022/09/14 06:06:13;;;;;;;1.27;0.40;;;24.20;47.00;;;;;;5042189;28;20047;-56
2022/09/14 06:08:40;;;;;;;1.17;0.40;;;24.20;47.00;;;;;;5045647;28;20338;-57
2022/09/14 06:11:08;;;;;;;1.42;0.50;;;24.20;47.00;;;;;;5045860;28;20049;-54
2022/09/14 06:13:35;;;;;;;1.88;0.50;;;24.20;47.10;;;;;;5043009;28;20413;-53
2022/09/14 06:16:05;;;;;;;2.10;0.70;;;24.20;47.10;;;;;;5043121;28;20132;-57
2022/09/14 06:18:35;;;;;;;2.20;0.70;;;24.20;47.10;;;;;;5042640;28;20036;-57
2022/09/14 06:21:01;;;;;;;1.40;0.65;;;24.20;47.20;;;;;;5042763;28;20022;-56
2022/09/14 06:23:28;;;;;;;2.22;0.60;;;24.20;47.20;;;;;;5040398;28;20029;-56
2022/09/14 06:25:55;;;;;;;1.10;0.43;;;24.20;47.20;;;;;;5036163;28;20045;-56
2022/09/14 06:28:22;;;;;;;2.97;0.60;;;24.20;47.20;;;;;;5034469;28;20044;-56
2022/09/14 06:30:48;;;;;;;0.80;0.50;;;24.20;47.30;;;;;;5034219;28;20220;-56
2022/09/14 06:33:14;;;;;;;1.70;0.60;;;24.20;47.30;;;;;;5042989;28;20030;-55
2022/09/14 06:35:41;;;;;;;1.10;0.50;;;24.20;47.40;;;;;;5041388;28;20472;-55
2022/09/14 06:38:08;;;;;;;1.20;0.43;;;24.20;47.40;;;;;;5046199;28;20338;-56
2022/09/14 06:40:33;;;;;;;3.22;0.55;;;24.20;47.50;;;;;;5039799;28;20029;-56
2022/09/14 06:43:01;;;;;;;1.98;0.60;;;24.20;47.50;;;;;;5040835;28;20064;-56
2022/09/14 06:45:31;;;;;;;3.30;0.80;;;24.20;47.60;;;;;;5039855;28;20368;-57
2022/09/14 06:47:57;;;;;;;1.95;0.70;;;24.20;47.70;;;;;;5032954;28;20036;-54
2022/09/14 06:50:24;;;;;;;2.15;0.80;;;24.20;47.90;;;;;;5042471;28;20041;-55
2022/09/14 06:52:49;;;;;;;2.65;0.77;;;24.20;47.90;;;;;;5045034;28;20044;-57
2022/09/14 06:55:16;;;;;;;1.65;0.55;;;24.20;48.00;;;;;;5038975;28;20113;-56
2022/09/14 06:57:42;;;;;;;0.70;0.47;;;24.20;47.90;;;;;;5040110;28;20330;-56
2022/09/14 07:00:08;;;;;;;2.72;0.70;;;24.20;47.90;;;;;;5040489;28;20102;-55
2022/09/14 07:02:34;;;;;;;1.27;0.60;;;24.20;47.90;;;;;;5043077;28;20025;-54
2022/09/14 07:05:00;;;;;;;1.35;0.55;;;24.20;47.90;;;;;;5042386;28;20060;-55
2022/09/14 07:07:25;;;;;;;1.10;0.68;;;24.20;48.00;;;;;;5040615;28;20056;-56
2022/09/14 07:09:52;;;;;;;1.40;0.60;;;24.20;48.10;;;;;;5043461;28;20049;-57
2022/09/14 07:12:18;;;;;;;2.25;0.60;;;24.20;48.00;;;;;;5042123;28;20519;-55
2022/09/14 07:14:44;;;;;;;2.67;0.73;;;24.20;48.00;;;;;;5033872;28;20033;-55
2022/09/14 07:17:10;;;;;;;1.73;0.75;;;24.20;48.10;;;;;;5030820;28;20026;-55
2022/09/14 07:19:36;;;;;;;2.30;0.85;;;24.20;48.10;;;;;;5034505;28;20036;-56
2022/09/14 07:22:01;;;;;;;1.42;0.73;;;24.20;48.10;;;;;;5032613;28;20383;-56
2022/09/14 07:24:27;;;;;;;3.80;0.90;;;24.20;48.10;;;;;;5036972;28;20043;-53
2022/09/14 07:26:53;;;;;;;1.58;0.85;;;24.20;48.20;;;;;;5034254;28;20025;-55
2022/09/14 07:29:19;;;;;;;3.30;0.80;;;24.20;48.20;;;;;;5033469;28;21839;-57
2022/09/14 07:31:51;;;;;;;2.30;0.77;;;24.20;48.30;;;;;;5031124;28;20076;-54
2022/09/14 07:34:17;;;;;;;1.95;0.60;;;24.20;48.90;;;;;;5044268;28;20040;-55
2022/09/14 07:36:43;;;;;;;2.00;0.70;;;24.20;48.30;;;;;;5040291;28;20033;-55
2022/09/14 07:39:12;;;;;;;1.83;0.43;;;24.20;48.30;;;;;;5044459;28;20468;-55
2022/09/14 07:41:38;;;;;;;1.90;0.70;;;24.20;48.30;;;;;;5035258;28;20456;-56
2022/09/14 07:44:06;;;;;;;2.08;0.57;;;24.20;48.30;;;;;;5034186;28;20056;-56
2022/09/14 07:46:37;;;;;;;3.88;0.70;;;24.20;48.30;;;;;;5020165;28;20449;-56
2022/09/14 07:49:04;;;;;;;1.50;0.68;;;24.20;48.30;;;;;;5016048;28;20426;-52
2022/09/14 07:51:31;;;;;;;1.20;0.68;;;24.20;48.40;;;;;;5030751;28;20090;-55
2022/09/14 07:53:59;;;;;;;1.65;0.50;;;24.20;48.30;;;;;;5054574;28;20741;-56
2022/09/14 07:56:25;;;;;;;1.52;0.52;;;24.20;48.30;;;;;;5054653;28;20029;-56
2022/09/14 07:58:56;;;;;;;2.53;0.70;;;24.20;48.30;;;;;;5039298;28;20083;-56
2022/09/14 08:01:23;;;;;;;1.73;0.60;;;24.20;48.20;;;;;;5053918;28;20029;-56
2022/09/14 08:03:49;;;;;;;1.70;0.70;;;24.20;48.20;;;;;;5036113;28;20033;-54
2022/09/14 08:06:17;;;;;;;3.25;0.75;;;24.20;48.20;;;;;;5033007;28;20045;-56
2022/09/14 08:08:46;;;;;;;2.17;0.75;;;24.20;48.10;;;;;;5054649;28;20037;-56
2022/09/14 08:11:14;;;;;;;2.05;0.70;;;24.20;48.00;;;;;;5054003;28;20041;-55
2022/09/14 08:13:44;;;;;;;2.80;0.80;;;24.20;47.90;;;;;;5055003;28;20102;-55
2022/09/14 08:16:11;;;;;;;2.20;0.80;;;24.20;47.90;;;;;;5050827;28;20033;-56
2022/09/14 08:18:37;;;;;;;1.48;0.68;;;24.20;47.90;;;;;;5054821;28;20120;-56
2022/09/14 08:21:05;;;;;;;1.83;0.50;;;24.20;47.90;;;;;;5054423;28;20076;-56
2022/09/14 08:23:32;;;;;;;1.02;0.50;;;24.20;47.90;;;;;;5054150;28;20052;-57
2022/09/14 08:26:03;;;;;;;1.50;0.40;;;24.20;47.90;;;;;;5050610;28;20048;-55
2022/09/14 08:28:28;;;;;;;1.23;0.38;;;24.20;47.90;;;;;;5039264;28;20106;-55
2022/09/14 08:30:54;;;;;;;1.77;0.47;;;24.20;47.90;;;;;;5054409;28;20080;-55
2022/09/14 08:33:20;;;;;;;1.20;0.40;;;24.20;47.90;;;;;;5054693;28;20080;-56
2022/09/14 08:35:46;;;;;;;1.13;0.50;;;24.20;47.90;;;;;;5037619;28;20037;-55
2022/09/14 08:38:11;;;;;;;1.33;0.57;;;24.20;47.90;;;;;;5034953;28;20038;-56
2022/09/14 08:40:45;;;;;;;1.33;0.55;;;24.20;47.90;;;;;;5034712;28;20034;-56
2022/09/14 08:43:13;;;;;;;2.38;0.50;;;24.20;47.90;;;;;;5044761;28;20395;-55
2022/09/14 08:45:42;;;;;;;0.77;0.47;;;24.20;47.90;;;;;;5054591;28;20041;-55
2022/09/14 08:48:28;;;;;;;2.33;0.82;;;24.20;47.90;;;;;;5056680;28;20419;-59
2022/09/14 08:50:54;;;;;;;4.35;0.63;;;24.20;47.90;;;;;;5049928;28;20051;-54
2022/09/14 08:53:24;;;;;;;1.20;0.57;;;24.20;47.90;;;;;;5043936;28;20040;-53
2022/09/14 08:56:01;;;;;;;2.15;0.80;;;24.20;47.90;;;;;;5055279;28;20115;-56
2022/09/14 08:58:56;;;;;;;2.20;0.60;;;24.20;48.10;;;;;;5042811;28;20053;-55
2022/09/14 09:01:36;;;;;;;;;;;24.20;48.00;;;;;;5056524;28;20036;-54
2022/09/14 09:04:23;;;;;;;1.67;0.60;;;24.20;48.10;;;;;;5032465;28;19908;-54
2022/09/14 09:07:09;;;;;;;0.98;0.50;;;24.20;48.10;;;;;;5037465;28;20252;-51
2022/09/14 09:09:52;;;;;;;7.97;2.30;;;24.20;48.10;;;;;;5038732;28;20050;-56
2022/09/14 09:12:21;;;;;;;10.60;2.83;;;24.20;48.20;;;;;;5035647;28;20037;-57
2022/09/14 09:14:52;;;;;;;8.38;2.80;;;24.20;48.30;;;;;;5058259;28;20071;-54
2022/09/14 09:17:43;;;;;;;8.77;2.72;;;24.20;48.30;;;;;;5048173;28;20025;-55
2022/09/14 09:20:14;;;;;;;7.97;2.53;;;24.20;48.20;;;;;;5035109;28;20496;-57
2022/09/14 09:23:17;;;;;;;10.40;2.53;;;24.20;48.20;;;;;;5048424;28;20045;-55
2022/09/14 09:26:01;;;;;;;8.93;3.00;;;24.20;48.20;;;;;;5053937;28;20041;-55
2022/09/14 09:28:28;;;;;;;7.15;2.60;;;24.20;48.20;;;;;;5056677;28;20048;-55
2022/09/14 09:30:58;;;;;;;6.60;1.77;;;24.20;48.20;;;;;;5057660;28;20122;-52
2022/09/14 09:33:36;;;;;;;8.20;2.40;;;24.20;48.10;;;;;;5043805;28;20045;-57
2022/09/14 09:36:17;;;;;;;6.50;1.90;;;24.20;48.00;;;;;;5052971;28;20037;-54
2022/09/14 09:38:43;;;;;;;6.90;1.67;;;24.20;48.00;;;;;;5052508;28;20031;-55
2022/09/14 09:41:17;;;;;;;4.75;1.77;;;24.20;48.00;;;;;;5042798;28;20033;-54
2022/09/14 09:44:10;;;;;;;7.25;1.50;;;24.20;47.90;;;;;;5046790;28;20029;-54
2022/09/14 09:46:43;;;;;;;3.90;1.25;;;24.20;47.90;;;;;;5029759;28;20045;-54
2022/09/14 09:49:37;;;;;;;6.50;1.70;;;24.20;47.90;;;;;;5037144;28;20038;-55
2022/09/14 09:52:16;;;;;;;3.10;1.25;;;24.20;47.90;;;;;;5015848;28;20060;-53
2022/09/14 09:54:49;;;;;;;3.45;0.95;;;24.20;48.60;;;;;;5032037;28;20107;-51
2022/09/14 09:57:31;;;;;;;4.57;1.27;;;24.20;47.90;;;;;;5029577;28;20099;-57
2022/09/14 10:00:25;;;;;;;3.72;1.13;;;24.20;47.90;;;;;;5034878;28;20349;-53
2022/09/14 10:02:52;;;;;;;3.70;1.10;;;24.20;48.60;;;;;;5051489;28;20040;-50
2022/09/14 10:05:27;;;;;;;5.10;1.30;;;24.20;47.90;;;;;;5045223;28;20021;-52
2022/09/14 10:08:02;;;;;;;4.78;1.40;;;24.20;47.90;;;;;;5037733;28;20100;-54
2022/09/14 10:10:34;;;;;;;3.35;1.02;;;24.20;47.90;;;;;;5036737;28;20040;-52
2022/09/14 10:13:02;;;;;;;6.85;1.60;;;24.20;47.90;;;;;;5036339;28;20353;-54
2022/09/14 10:15:37;;;;;;;2.65;0.73;;;24.20;47.90;;;;;;5055714;28;20039;-55
2022/09/14 10:18:12;;;;;;;3.58;0.90;;;24.20;47.90;;;;;;5041372;28;20037;-56
2022/09/14 10:20:53;;;;;;;2.90;0.77;;;24.20;47.80;;;;;;5036309;28;20041;-55
2022/09/14 10:23:18;;;;;;;4.05;1.40;;;24.20;47.90;;;;;;5036715;28;20380;-52
2022/09/14 10:25:50;;;;;;;2.28;0.70;;;24.20;47.90;;;;;;5045588;28;20048;-53
2022/09/14 10:28:27;;;;;;;2.20;0.93;;;24.20;47.90;;;;;;5051339;28;20030;-56
2022/09/14 10:31:17;;;;;;;1.98;0.70;;;24.20;47.90;;;;;;5047376;28;20130;-54
2022/09/14 10:33:50;;;;;;;1.58;0.55;;;24.30;47.90;;;;;;5056211;28;20130;-56
2022/09/14 10:36:40;;;;;;;1.65;0.68;;;24.20;47.90;;;;;;5055899;28;20028;-53
2022/09/14 10:39:25;;;;;;;2.28;0.80;;;24.20;47.80;;;;;;5056244;28;20035;-56
2022/09/14 10:42:12;;;;;;;1.65;0.75;;;24.20;47.90;;;;;;5054213;28;20089;-54
2022/09/14 10:44:56;;;;;;;2.83;0.70;;;24.20;47.90;;;;;;5052623;28;20128;-57
2022/09/14 10:47:44;;;;;;;1.92;0.60;;;24.20;47.90;;;;;;5055862;28;20124;-54
2022/09/14 10:50:44;;;;;;;3.10;0.77;;;24.30;48.00;;;;;;5047419;28;20153;-53
2022/09/14 10:53:48;;;;;;;1.48;0.60;;;24.30;48.00;;;;;;5036575;28;20040;-52
2022/09/14 10:56:22;;;;;;;1.65;0.65;;;24.30;48.00;;;;;;5048757;28;20142;-49
2022/09/14 10:59:14;;;;;;;5.32;0.95;;;24.20;47.90;;;;;;5033351;28;20344;-54
2022/09/14 11:01:49;;;;;;;2.80;0.75;;;24.30;48.00;;;;;;5032891;28;20056;-51
2022/09/14 11:04:36;;;;;;;2.40;0.55;;;24.30;48.00;;;;;;5036103;28;20104;-51
2022/09/14 11:07:21;;;;;;;2.55;0.70;;;24.30;48.00;;;;;;5035731;28;20060;-52
2022/09/14 11:10:03;;;;;;;2.13;0.70;;;24.30;48.00;;;;;;5036833;28;20047;-53
2022/09/14 11:12:58;;;;;;;1.02;0.47;;;24.30;48.00;;;;;;5034254;28;20548;-52
2022/09/14 11:15:30;;;;;;;1.55;0.80;;;24.30;48.00;;;;;;4998687;28;20062;-50
2022/09/14 11:18:19;;;;;;;1.20;0.50;;;24.30;48.00;;;;;;5035210;28;20053;-48
2022/09/14 11:21:07;;;;;;;1.88;0.60;;;24.30;48.00;;;;;;5035108;28;20052;-52
2022/09/14 11:23:56;;;;;;;1.38;0.60;;;24.30;48.00;;;;;;5053551;28;20152;-48
2022/09/14 11:26:35;;;;;;;1.85;0.50;;;24.30;48.00;;;;;;5051071;28;20435;-51
2022/09/14 11:29:22;;;;;;;1.40;0.60;;;24.30;48.00;;;;;;5055378;28;20059;-51
2022/09/14 11:32:11;;;;;;;2.17;0.80;;;24.30;48.00;;;;;;5051961;28;20037;-48
2022/09/14 11:35:03;;;;;;;2.15;0.80;;;24.30;48.00;;;;;;5037231;28;20349;-49
2022/09/14 11:37:38;;;;;;;1.48;0.70;;;24.30;48.00;;;;;;5046470;28;20482;-47
2022/09/14 11:40:18;;;;;;;1.13;0.43;;;24.30;48.00;;;;;;5046417;28;20059;-49
2022/09/14 11:42:55;;;;;;;1.23;0.55;;;24.30;48.00;;;;;;5033002;28;20112;-48
2022/09/14 11:45:34;;;;;;;1.33;0.63;;;24.30;48.00;;;;;;5031128;28;20057;-52
2022/09/14 11:48:25;;;;;;;1.50;0.60;;;24.40;48.10;;;;;;5026946;28;20057;-53
2022/09/14 11:50:59;;;;;;;1.60;0.65;;;24.30;48.00;;;;;;5032359;28;20125;-54
2022/09/14 11:53:25;;;;;;;;;;;24.30;48.00;;;;;;5030264;28;20037;-59
2022/09/14 11:55:51;;;;;;;1.13;0.60;;;24.30;48.10;;;;;;5030065;28;19917;-58
2022/09/14 11:58:25;;;;;;;3.60;0.70;;;24.30;48.40;;;;;;5029837;28;20025;-57
2022/09/14 12:00:50;;;;;;;1.70;0.60;;;24.30;48.60;;;;;;5030165;28;20032;-55
2022/09/14 12:03:20;;;;;;;1.50;0.50;;;24.40;48.70;;;;;;5033219;28;20021;-59
2022/09/14 12:05:48;;;;;;;0.38;0.30;;;24.50;48.80;;;;;;5061839;28;20496;-60
2022/09/14 12:08:25;;;;;;;1.33;0.50;;;24.50;48.70;;;;;;5030840;28;20033;-56
2022/09/14 12:11:09;;;;;;;2.22;0.47;;;24.60;48.60;;;;;;5032702;28;20124;-57
2022/09/14 12:13:38;;;;;;;1.75;0.50;;;24.70;48.50;;;;;;5032640;28;20104;-58
2022/09/14 12:16:06;;;;;;;1.92;0.77;;;24.80;48.20;;;;;;5028950;28;20419;-62
2022/09/14 12:18:37;;;;;;;1.67;0.57;;;24.90;48.20;;;;;;5026331;28;20461;-60
2022/09/14 12:21:22;;;;;;;1.30;0.40;;;25.00;48.00;;;;;;5032946;28;20025;-59
2022/09/14 12:23:52;;;;;;;1.42;0.40;;;25.10;47.90;;;;;;5054544;28;20032;-60
2022/09/14 12:26:20;;;;;;;0.98;0.47;;;25.20;47.70;;;;;;5058710;28;20440;-61
2022/09/14 12:28:49;;;;;;;0.52;0.40;;;25.30;47.60;;;;;;5058948;28;20340;-56
2022/09/14 12:31:55;;;;;;;0.98;0.38;;;25.40;47.40;;;;;;5042778;28;20353;-56
2022/09/14 12:34:26;;;;;;;1.08;0.50;;;25.50;47.30;;;;;;5039058;28;20025;-53
2022/09/14 12:36:52;;;;;;;1.10;0.50;;;25.60;47.10;;;;;;5058413;28;20036;-58
2022/09/14 12:39:30;;;;;;;2.13;0.60;;;25.70;47.00;;;;;;5057453;28;20033;-60
2022/09/14 12:41:55;;;;;;;3.70;0.55;;;25.80;46.90;;;;;;5058560;28;20044;-57
2022/09/14 12:44:36;;;;;;;0.85;0.50;;;25.80;46.80;;;;;;5047135;28;20064;-61
2022/09/14 12:47:20;;;;;;;1.70;0.65;;;25.90;46.70;;;;;;5051600;28;20122;-58
2022/09/14 12:49:47;;;;;;;1.80;0.60;;;26.00;46.50;;;;;;5038169;28;20421;-58
2022/09/14 12:52:24;;;;;;;1.65;0.50;;;26.00;46.40;;;;;;5049552;28;20340;-59
2022/09/14 12:55:16;;;;;;;1.20;0.60;;;26.10;46.30;;;;;;5036320;28;20112;-61
2022/09/14 12:57:56;;;;;;;1.45;0.43;;;26.20;46.20;;;;;;5018159;28;20160;-60
2022/09/14 13:00:23;;;;;;;0.68;0.40;;;26.20;46.10;;;;;;5029060;28;20472;-60
2022/09/14 13:03:14;;;;;;;1.85;0.68;;;26.30;46.00;;;;;;5039515;28;20025;-61
2022/09/14 13:05:42;;;;;;;0.77;0.40;;;26.30;45.80;;;;;;5037872;28;20111;-58
2022/09/14 13:08:11;;;;;;;1.58;0.60;;;26.40;45.70;;;;;;5057790;28;20029;-60
2022/09/14 13:10:44;;;;;;;1.77;0.52;;;26.40;45.60;;;;;;5055700;28;20069;-60
2022/09/14 13:13:32;;;;;;;1.47;0.60;;;26.50;45.50;;;;;;5058286;28;20467;-61
2022/09/14 13:16:01;;;;;;;1.40;0.60;;;26.50;45.40;;;;;;5053307;28;20033;-60
2022/09/14 13:18:31;;;;;;;0.70;0.45;;;26.60;45.90;;;;;;5044788;28;20022;-59